createdAt,value
2019-05-02T00:00:29.980Z,18.01
2019-05-02T00:02:59.853Z,17.81
2019-05-02T00:05:27.448Z,17.69
2019-05-02T00:08:04.877Z,17.72
2019-05-02T00:10:28.835Z,17.62
2019-05-02T00:12:55.745Z,17.53
2019-05-02T00:15:22.565Z,17.51
2019-05-02T00:17:52.080Z,17.48
2019-05-02T00:20:25.752Z,17.36
2019-05-02T00:22:52.324Z,17.37
2019-05-02T00:25:24.738Z,17.32
2019-05-02T00:27:53.414Z,17.43
2019-05-02T00:30:25.024Z,17.45
2019-05-02T00:32:58.347Z,17.43
2019-05-02T00:35:27.082Z,17.43
2019-05-02T00:37:57.341Z,17.53
2019-05-02T00:40:25.736Z,17.45
2019-05-02T00:42:53.270Z,17.52
2019-05-02T00:45:24.076Z,17.86
2019-05-02T00:47:49.766Z,17.87
2019-05-02T00:50:16.429Z,17.94
2019-05-02T00:52:43.135Z,17.59
2019-05-02T00:55:10.291Z,17.54
2019-05-02T00:57:36.939Z,17.28
2019-05-02T01:00:03.775Z,17.31
2019-05-02T01:02:30.628Z,17.32
2019-05-02T01:04:59.282Z,17.41
2019-05-02T01:07:26.920Z,17.42
2019-05-02T01:09:54.465Z,17.46
2019-05-02T01:12:26.564Z,17.49
2019-05-02T01:14:49.775Z,17.40
2019-05-02T01:17:16.432Z,17.36
2019-05-02T01:19:47.362Z,17.20
2019-05-02T01:22:16.002Z,17.09
2019-05-02T01:24:41.685Z,17.01
2019-05-02T01:27:09.172Z,16.73
2019-05-02T01:29:35.743Z,16.65
2019-05-02T01:32:02.633Z,16.71
2019-05-02T01:34:29.522Z,16.84
2019-05-02T01:36:56.399Z,16.62
2019-05-02T01:39:23.295Z,16.77
2019-05-02T01:41:50.916Z,16.82
2019-05-02T01:44:17.691Z,16.74
2019-05-02T01:46:44.341Z,16.53
2019-05-02T01:49:10.938Z,16.46
2019-05-02T01:51:42.049Z,16.38
2019-05-02T01:54:09.987Z,16.32
2019-05-02T01:56:37.112Z,16.17
2019-05-02T01:59:03.724Z,16.06
2019-05-02T02:01:30.342Z,15.97
2019-05-02T02:03:57.317Z,15.90
2019-05-02T02:06:23.987Z,15.98
2019-05-02T02:08:50.864Z,16.02
2019-05-02T02:11:17.469Z,16.04
2019-05-02T02:13:44.092Z,15.87
2019-05-02T02:16:11.106Z,15.78
2019-05-02T02:18:37.865Z,15.75
2019-05-02T02:21:04.592Z,15.75
2019-05-02T02:23:31.356Z,15.74
2019-05-02T02:25:58.904Z,15.68
2019-05-02T02:28:25.517Z,15.80
2019-05-02T02:30:57.687Z,15.85
2019-05-02T02:33:21.649Z,15.87
2019-05-02T02:35:50.329Z,15.79
2019-05-02T02:38:16.658Z,15.65
2019-05-02T02:40:43.249Z,15.72
2019-05-02T02:43:32.248Z,15.47
2019-05-02T02:45:39.141Z,15.39
2019-05-02T02:48:05.742Z,15.37
2019-05-02T02:50:42.853Z,15.52
2019-05-02T02:53:05.434Z,15.29
2019-05-02T02:55:32.342Z,15.01
2019-05-02T02:58:04.677Z,14.96
2019-05-02T03:00:28.326Z,14.92
2019-05-02T03:02:57.367Z,14.81
2019-05-02T03:05:25.863Z,14.86
2019-05-02T03:07:52.578Z,14.80
2019-05-02T03:10:22.147Z,14.77
2019-05-02T03:12:48.477Z,14.80
2019-05-02T03:15:21.204Z,14.91
2019-05-02T03:17:47.298Z,14.94
2019-05-02T03:20:16.919Z,14.86
2019-05-02T03:22:43.701Z,14.77
2019-05-02T03:25:18.002Z,14.73
2019-05-02T03:27:46.819Z,14.74
2019-05-02T03:30:29.570Z,14.55
2019-05-02T03:33:03.012Z,14.42
2019-05-02T03:35:19.701Z,14.40
2019-05-02T03:37:51.385Z,14.47
2019-05-02T03:40:21.953Z,14.61
2019-05-02T03:42:49.503Z,14.45
2019-05-02T03:45:17.792Z,14.48
2019-05-02T03:47:48.698Z,14.39
2019-05-02T03:50:31.683Z,14.46
2019-05-02T03:52:48.552Z,14.39
2019-05-02T03:55:23.619Z,14.39
2019-05-02T03:57:45.478Z,14.35
2019-05-02T04:00:20.576Z,14.15
2019-05-02T04:02:46.836Z,13.93
2019-05-02T04:05:19.619Z,13.95
2019-05-02T04:07:46.193Z,13.89
2019-05-02T04:10:19.305Z,14.01
2019-05-02T04:12:45.248Z,14.20
2019-05-02T04:15:12.130Z,14.34
2019-05-02T04:17:40.912Z,14.85
2019-05-02T04:20:10.204Z,14.89
2019-05-02T04:22:42.609Z,15.84
2019-05-02T04:25:06.412Z,16.38
2019-05-02T04:27:34.202Z,16.57
2019-05-02T04:30:09.802Z,16.25
2019-05-02T04:32:32.035Z,15.98
2019-05-02T04:35:00.040Z,15.89
2019-05-02T04:37:26.655Z,15.91
2019-05-02T04:40:00.709Z,15.73
2019-05-02T04:42:24.144Z,15.71
2019-05-02T04:45:14.129Z,15.78
2019-05-02T04:47:22.346Z,16.02
2019-05-02T04:49:52.039Z,16.07
2019-05-02T04:52:38.465Z,16.13
2019-05-02T04:55:17.101Z,16.18
2019-05-02T04:57:41.084Z,16.29
2019-05-02T05:00:08.575Z,16.57
2019-05-02T05:02:36.469Z,16.70
2019-05-02T05:05:02.938Z,16.92
2019-05-02T05:07:40.052Z,17.28
2019-05-02T05:10:02.999Z,17.62
2019-05-02T05:12:32.472Z,17.91
2019-05-02T05:15:00.482Z,18.16
2019-05-02T05:17:32.479Z,18.42
2019-05-02T05:20:00.169Z,18.67
2019-05-02T05:22:29.261Z,18.76
2019-05-02T05:24:58.101Z,18.90
2019-05-02T05:27:24.487Z,18.94
2019-05-02T05:29:53.677Z,18.94
2019-05-02T05:32:19.709Z,19.00
2019-05-02T05:34:47.781Z,18.90
2019-05-02T05:37:17.302Z,18.96
2019-05-02T05:39:50.904Z,19.14
2019-05-02T05:42:14.719Z,19.41
2019-05-02T05:44:41.320Z,19.72
2019-05-02T05:47:12.248Z,19.79
2019-05-02T05:49:40.407Z,19.84
2019-05-02T05:52:08.081Z,20.68
2019-05-02T05:54:40.478Z,20.00
2019-05-02T05:57:03.476Z,20.12
2019-05-02T05:59:32.061Z,20.16
2019-05-02T06:02:05.307Z,20.38
2019-05-02T06:04:33.129Z,20.51
2019-05-02T06:06:59.547Z,20.54
2019-05-02T06:09:31.084Z,20.66
2019-05-02T06:11:58.828Z,20.76
2019-05-02T06:14:27.861Z,21.12
2019-05-02T06:16:54.937Z,21.32
2019-05-02T06:19:23.899Z,21.43
2019-05-02T06:21:54.856Z,21.60
2019-05-02T06:24:22.468Z,21.72
2019-05-02T06:26:51.720Z,21.76
2019-05-02T06:29:20.597Z,21.79
2019-05-02T06:31:50.654Z,21.82
2019-05-02T06:34:18.233Z,21.93
2019-05-02T06:36:48.504Z,21.66
2019-05-02T06:39:15.368Z,21.75
2019-05-02T06:41:45.947Z,21.53
2019-05-02T06:44:18.651Z,21.33
2019-05-02T06:46:46.924Z,21.58
2019-05-02T06:49:17.062Z,21.80
2019-05-02T06:51:45.702Z,21.84
2019-05-02T06:54:18.061Z,21.96
2019-05-02T06:56:47.862Z,21.93
2019-05-02T06:59:18.473Z,22.16
2019-05-02T07:01:43.115Z,22.47
2019-05-02T07:04:10.244Z,22.56
2019-05-02T07:06:55.982Z,22.62
2019-05-02T07:09:09.067Z,22.79
2019-05-02T07:11:40.945Z,23.03
2019-05-02T07:14:13.417Z,23.16
2019-05-02T07:16:38.829Z,23.23
2019-05-02T07:19:04.439Z,23.41
2019-05-02T07:21:33.123Z,23.28
2019-05-02T07:24:03.421Z,23.20
2019-05-02T07:26:34.901Z,23.39
2019-05-02T07:29:07.701Z,23.61
2019-05-02T07:31:36.633Z,23.64
2019-05-02T07:34:08.044Z,23.68
2019-05-02T07:36:38.360Z,23.77
2019-05-02T07:39:07.593Z,23.55
2019-05-02T07:41:37.250Z,23.60
2019-05-02T07:44:06.075Z,23.62
2019-05-02T07:46:51.605Z,23.64
2019-05-02T07:49:12.891Z,23.76
2019-05-02T07:51:44.631Z,23.79
2019-05-02T07:54:13.625Z,23.95
2019-05-02T07:56:48.620Z,24.09
2019-05-02T07:59:18.705Z,24.44
2019-05-02T08:01:44.914Z,24.76
2019-05-02T08:04:18.067Z,25.12
2019-05-02T08:06:46.445Z,25.04
2019-05-02T08:09:13.450Z,25.05
2019-05-02T08:11:45.979Z,24.99
2019-05-02T08:14:18.915Z,25.28
2019-05-02T08:16:45.848Z,25.53
2019-05-02T08:19:17.110Z,25.63
2019-05-02T08:21:43.925Z,25.63
2019-05-02T08:24:12.047Z,25.32
2019-05-02T08:26:39.457Z,25.55
2019-05-02T08:29:06.533Z,25.80
2019-05-02T08:31:36.370Z,25.95
2019-05-02T08:34:14.398Z,26.13
2019-05-02T08:36:37.090Z,26.25
2019-05-02T08:39:05.974Z,25.93
2019-05-02T08:41:36.650Z,26.06
2019-05-02T08:44:03.984Z,26.19
2019-05-02T08:49:23.906Z,26.47
2019-05-02T08:51:55.972Z,26.50
2019-05-02T08:54:23.255Z,26.71
2019-05-02T08:56:58.721Z,26.97
2019-05-02T08:59:26.077Z,27.30
2019-05-02T09:01:53.871Z,27.34
2019-05-02T09:07:12.527Z,27.06
2019-05-02T09:09:40.498Z,27.26
2019-05-02T09:12:15.086Z,27.23
2019-05-02T09:14:45.299Z,27.01
2019-05-02T09:17:16.727Z,26.90
2019-05-02T09:19:58.683Z,27.16
2019-05-02T09:22:16.775Z,27.35
2019-05-02T09:24:45.355Z,27.22
2019-05-02T09:27:12.442Z,26.89
2019-05-02T09:29:49.078Z,27.02
2019-05-02T09:32:22.839Z,27.23
2019-05-02T09:34:56.581Z,27.49
2019-05-02T09:37:27.393Z,27.62
2019-05-02T09:39:54.325Z,27.87
2019-05-02T09:42:24.782Z,27.99
2019-05-02T09:44:56.854Z,28.06
2019-05-02T09:47:27.461Z,28.40
2019-05-02T09:49:53.199Z,28.25
2019-05-02T09:52:22.991Z,28.18
2019-05-02T09:54:51.854Z,28.18
2019-05-02T09:57:22.616Z,28.10
2019-05-02T09:59:55.797Z,28.47
2019-05-02T10:02:22.814Z,28.85
2019-05-02T10:04:52.946Z,28.88
2019-05-02T10:07:27.001Z,28.56
2019-05-02T10:10:02.522Z,28.53
2019-05-02T10:12:25.459Z,29.02
2019-05-02T10:14:52.739Z,29.20
2019-05-02T10:17:23.248Z,28.75
2019-05-02T10:19:57.057Z,28.95
2019-05-02T10:22:26.685Z,29.06
2019-05-02T10:24:55.779Z,29.16
2019-05-02T10:27:29.136Z,29.43
2019-05-02T10:30:08.097Z,29.38
2019-05-02T10:32:32.386Z,28.96
2019-05-02T10:35:02.106Z,29.20
2019-05-02T10:37:37.677Z,29.34
2019-05-02T10:39:59.975Z,29.38
2019-05-02T10:42:26.895Z,29.46
2019-05-02T10:44:56.050Z,29.80
2019-05-02T10:47:22.736Z,29.72
2019-05-02T10:49:49.610Z,29.80
2019-05-02T10:52:21.571Z,30.06
2019-05-02T10:54:49.661Z,30.10
2019-05-02T10:57:21.867Z,30.01
2019-05-02T10:59:48.624Z,30.21
2019-05-02T11:02:15.482Z,30.19
2019-05-02T11:04:43.792Z,29.90
2019-05-02T11:07:21.915Z,29.76
2019-05-02T11:09:42.272Z,29.66
2019-05-02T11:12:09.439Z,29.73
2019-05-02T11:14:42.082Z,29.86
2019-05-02T11:17:15.945Z,30.19
2019-05-02T11:19:42.001Z,30.53
2019-05-02T11:22:12.195Z,30.40
2019-05-02T11:24:38.960Z,30.30
2019-05-02T11:27:08.188Z,30.39
2019-05-02T11:29:36.642Z,30.19
2019-05-02T11:32:03.548Z,30.29
2019-05-02T11:34:37.696Z,30.34
2019-05-02T11:37:05.065Z,30.65
2019-05-02T11:39:42.753Z,30.74
2019-05-02T11:42:04.638Z,30.33
2019-05-02T11:44:33.753Z,30.22
2019-05-02T11:47:03.792Z,30.25
2019-05-02T11:49:31.956Z,30.42
2019-05-02T11:52:03.779Z,30.63
2019-05-02T11:54:34.050Z,30.54
2019-05-02T11:57:03.918Z,30.72
2019-05-02T11:59:33.019Z,30.51
2019-05-02T12:02:02.705Z,30.52
2019-05-02T12:04:32.464Z,30.66
2019-05-02T12:07:01.474Z,30.57
2019-05-02T12:09:31.829Z,30.45
2019-05-02T12:12:05.506Z,30.75
2019-05-02T12:14:36.401Z,30.44
2019-05-02T12:17:03.311Z,30.39
2019-05-02T12:19:33.885Z,30.30
2019-05-02T12:22:02.612Z,30.34
2019-05-02T12:24:31.895Z,30.11
2019-05-02T12:26:59.940Z,30.20
2019-05-02T12:29:30.104Z,30.73
2019-05-02T12:31:56.993Z,31.02
2019-05-02T12:34:26.184Z,31.12
2019-05-02T12:36:55.481Z,31.00
2019-05-02T12:39:22.336Z,30.99
2019-05-02T12:41:49.388Z,30.90
2019-05-02T12:44:16.813Z,30.85
2019-05-02T12:46:43.654Z,30.69
2019-05-02T12:49:22.644Z,30.67
2019-05-02T12:51:39.183Z,30.61
2019-05-02T12:54:06.064Z,30.33
2019-05-02T12:56:32.994Z,30.10
2019-05-02T12:59:02.161Z,30.11
2019-05-02T13:01:28.714Z,30.72
2019-05-02T13:03:55.574Z,30.90
2019-05-02T13:06:22.753Z,31.27
2019-05-02T13:08:49.348Z,31.56
2019-05-02T13:11:16.201Z,31.44
2019-05-02T13:13:43.680Z,31.56
2019-05-02T13:16:12.195Z,31.50
2019-05-02T13:18:39.271Z,31.84
2019-05-02T13:21:08.110Z,32.06
2019-05-02T13:23:37.178Z,31.97
2019-05-02T13:26:10.057Z,31.96
2019-05-02T13:28:32.462Z,31.73
2019-05-02T13:30:59.430Z,31.66
2019-05-02T13:33:27.380Z,31.72
2019-05-02T13:35:54.957Z,31.94
2019-05-02T13:38:22.431Z,31.44
2019-05-02T13:40:49.391Z,30.80
2019-05-02T13:43:18.015Z,30.48
2019-05-02T13:45:45.644Z,30.27
2019-05-02T13:48:12.887Z,30.33
2019-05-02T13:50:42.271Z,30.19
2019-05-02T13:53:12.145Z,30.05
2019-05-02T13:55:39.252Z,29.81
2019-05-02T13:58:11.372Z,30.04
2019-05-02T14:00:36.370Z,30.59
2019-05-02T14:03:03.882Z,30.97
2019-05-02T14:05:32.979Z,31.14
2019-05-02T14:08:01.821Z,31.33
2019-05-02T14:10:33.754Z,31.50
2019-05-02T14:12:58.387Z,31.38
2019-05-02T14:15:25.389Z,30.87
2019-05-02T14:17:52.616Z,30.57
2019-05-02T14:20:22.190Z,30.84
2019-05-02T14:22:48.526Z,31.16
2019-05-02T14:25:18.015Z,31.07
2019-05-02T14:27:46.921Z,31.14
2019-05-02T14:30:15.038Z,31.45
2019-05-02T14:32:44.465Z,31.73
2019-05-02T14:35:12.571Z,31.95
2019-05-02T14:37:42.094Z,32.05
2019-05-02T14:40:11.194Z,32.34
2019-05-02T14:42:41.925Z,32.57
2019-05-02T14:45:24.136Z,32.62
2019-05-02T14:47:37.490Z,32.68
2019-05-02T14:50:05.255Z,32.82
2019-05-02T14:52:32.680Z,32.62
2019-05-02T14:54:59.609Z,32.68
2019-05-02T14:57:27.304Z,32.09
2019-05-02T14:59:59.197Z,32.15
2019-05-02T15:02:23.038Z,32.07
2019-05-02T15:04:52.299Z,32.19
2019-05-02T15:07:22.957Z,32.24
2019-05-02T15:09:47.862Z,31.93
2019-05-02T15:12:18.897Z,32.28
2019-05-02T15:14:43.328Z,32.24
2019-05-02T15:17:11.983Z,31.77
2019-05-02T15:19:38.530Z,31.60
2019-05-02T15:22:05.310Z,31.65
2019-05-02T15:24:36.141Z,31.53
2019-05-02T15:27:03.913Z,31.28
2019-05-02T15:29:29.373Z,31.72
2019-05-02T15:31:57.889Z,31.82
2019-05-02T15:34:26.191Z,31.75
2019-05-02T15:36:53.059Z,31.80
2019-05-02T15:41:48.824Z,32.02
2019-05-02T15:44:18.956Z,31.97
2019-05-02T15:46:44.378Z,32.05
2019-05-02T15:49:12.289Z,32.10
2019-05-02T15:51:43.688Z,31.93
2019-05-02T15:54:09.009Z,32.10
2019-05-02T15:56:36.050Z,32.12
2019-05-02T15:59:06.201Z,32.04
2019-05-02T16:01:32.091Z,31.91
2019-05-02T16:03:59.220Z,31.50
2019-05-02T16:06:31.679Z,31.22
2019-05-02T16:08:54.772Z,31.24
2019-05-02T16:11:22.990Z,31.03
2019-05-02T16:13:52.724Z,31.35
2019-05-02T16:16:18.608Z,31.52
2019-05-02T16:18:45.520Z,31.98
2019-05-02T16:21:12.248Z,32.05
2019-05-02T16:23:39.113Z,31.57
2019-05-02T16:26:08.727Z,31.19
2019-05-02T16:28:36.967Z,30.67
2019-05-02T16:31:03.183Z,30.77
2019-05-02T16:33:31.801Z,30.63
2019-05-02T16:35:59.471Z,30.41
2019-05-02T16:38:26.872Z,30.21
2019-05-02T16:40:54.710Z,30.12
2019-05-02T16:43:22.279Z,29.34
2019-05-02T16:45:52.473Z,29.28
2019-05-02T16:48:19.468Z,29.28
2019-05-02T16:50:46.356Z,29.21
2019-05-02T16:53:17.190Z,29.39
2019-05-02T16:55:43.681Z,29.56
2019-05-02T16:58:11.843Z,29.40
2019-05-02T17:00:42.523Z,29.39
2019-05-02T17:03:07.750Z,29.39
2019-05-02T17:05:34.612Z,29.06
2019-05-02T17:08:02.311Z,28.68
2019-05-02T17:10:29.451Z,28.26
2019-05-02T17:13:12.640Z,28.29
2019-05-02T17:20:46.949Z,28.51
2019-05-02T17:23:13.837Z,28.66
2019-05-02T17:25:41.615Z,28.54
2019-05-02T17:28:11.223Z,28.51
2019-05-02T17:30:40.416Z,28.16
2019-05-02T17:33:07.124Z,27.92
2019-05-02T17:35:35.127Z,28.11
2019-05-02T17:38:02.535Z,28.12
2019-05-02T17:40:29.556Z,28.17
2019-05-02T17:42:57.062Z,28.24
2019-05-02T17:45:26.254Z,28.12
2019-05-02T17:47:53.200Z,28.21
2019-05-02T17:50:21.991Z,28.14
2019-05-02T17:52:48.677Z,27.56
2019-05-02T17:55:15.655Z,27.18
2019-05-02T17:57:42.257Z,27.28
2019-05-02T18:00:13.134Z,27.42
2019-05-02T18:02:38.031Z,27.46
2019-05-02T18:05:04.941Z,27.48
2019-05-02T18:07:36.034Z,27.33
2019-05-02T18:10:07.858Z,27.26
2019-05-02T18:12:30.056Z,27.34
2019-05-02T18:14:59.058Z,27.15
2019-05-02T18:17:27.802Z,27.11
2019-05-02T18:19:56.733Z,27.00
2019-05-02T18:22:26.406Z,26.80
2019-05-02T18:24:52.729Z,26.53
2019-05-02T18:27:19.681Z,26.22
2019-05-02T18:29:46.653Z,26.26
2019-05-02T18:32:17.514Z,26.17
2019-05-02T18:34:41.993Z,26.22
2019-05-02T18:37:08.833Z,26.22
2019-05-02T18:39:42.605Z,26.28
2019-05-02T18:44:42.042Z,26.17
2019-05-02T18:47:12.543Z,26.13
2019-05-02T18:49:41.877Z,25.68
2019-05-02T18:52:09.303Z,25.29
2019-05-02T18:54:38.660Z,25.11
2019-05-02T18:57:04.805Z,25.01
2019-05-02T18:59:32.079Z,24.84
2019-05-02T19:01:59.828Z,24.71
2019-05-02T19:04:34.855Z,24.70
2019-05-02T19:06:55.120Z,24.36
2019-05-02T19:09:29.836Z,24.22
2019-05-02T19:12:04.802Z,24.34
2019-05-02T19:14:25.977Z,24.24
2019-05-02T19:16:52.663Z,23.96
2019-05-02T19:19:22.526Z,23.71
2019-05-02T19:21:49.309Z,23.62
2019-05-02T19:24:16.166Z,23.62
2019-05-02T19:26:49.250Z,23.60
2019-05-02T19:29:17.101Z,23.50
2019-05-02T19:31:46.150Z,23.32
2019-05-02T19:34:16.951Z,23.33
2019-05-02T19:36:44.382Z,23.15
2019-05-02T19:39:11.807Z,23.17
2019-05-02T19:41:47.740Z,22.87
2019-05-02T19:44:15.456Z,22.75
2019-05-02T19:46:45.992Z,22.72
2019-05-02T19:49:16.202Z,22.88
2019-05-02T19:51:45.073Z,22.86
2019-05-02T19:54:16.376Z,22.80
2019-05-02T19:56:47.474Z,22.72
2019-05-02T19:59:16.699Z,22.51
2019-05-02T20:01:45.973Z,22.41
2019-05-02T20:04:15.908Z,22.32
2019-05-02T20:06:45.163Z,22.30
2019-05-02T20:09:22.968Z,22.25
2019-05-02T20:11:53.809Z,22.14
2019-05-02T20:14:22.047Z,22.04
2019-05-02T20:16:49.734Z,21.83
2019-05-02T20:19:17.280Z,21.81
2019-05-02T20:21:45.265Z,21.83
2019-05-02T20:24:17.481Z,21.87
2019-05-02T20:26:41.756Z,21.98
2019-05-02T20:29:08.834Z,22.11
2019-05-02T20:31:35.475Z,21.98
2019-05-02T20:34:03.252Z,21.81
2019-05-02T20:36:32.102Z,21.78
2019-05-02T20:38:59.066Z,21.76
2019-05-02T20:41:27.173Z,21.84
2019-05-02T20:43:53.743Z,21.72
2019-05-02T20:46:22.092Z,21.54
2019-05-02T20:48:49.212Z,21.58
2019-05-02T20:51:16.338Z,21.47
2019-05-02T20:53:42.953Z,21.30
2019-05-02T20:56:09.737Z,21.29
2019-05-02T20:58:36.485Z,21.31
2019-05-02T21:01:08.501Z,21.23
2019-05-02T21:03:32.115Z,21.14
2019-05-02T21:05:59.134Z,21.11
2019-05-02T21:08:25.817Z,21.02
2019-05-02T21:10:53.235Z,20.87
2019-05-02T21:13:21.979Z,20.83
2019-05-02T21:15:48.800Z,20.72
2019-05-02T21:18:15.415Z,20.71
2019-05-02T21:20:42.400Z,20.93
2019-05-02T21:23:09.068Z,21.10
2019-05-02T21:25:35.700Z,20.94
2019-05-02T21:28:02.846Z,20.94
2019-05-02T21:30:29.512Z,21.00
2019-05-02T21:32:56.499Z,20.89
2019-05-02T21:35:23.316Z,21.00
2019-05-02T21:37:50.168Z,21.00
2019-05-02T21:40:17.021Z,21.05
2019-05-02T21:42:43.710Z,20.94
2019-05-02T21:45:14.038Z,20.96
2019-05-02T21:50:29.555Z,20.67
2019-05-02T21:52:56.178Z,20.63
2019-05-02T21:55:23.148Z,20.53
2019-05-02T21:57:49.803Z,20.50
2019-05-02T22:00:16.403Z,20.72
2019-05-02T22:02:43.006Z,20.85
2019-05-02T22:05:10.301Z,21.01
2019-05-02T22:07:36.927Z,21.11
2019-05-02T22:10:03.537Z,21.16
2019-05-02T22:12:31.755Z,21.12
2019-05-02T22:14:58.698Z,21.17
2019-05-02T22:17:26.111Z,21.16
2019-05-02T22:19:53.195Z,21.25
2019-05-02T22:22:20.074Z,21.55
2019-05-02T22:24:47.016Z,21.70
2019-05-02T22:27:14.049Z,21.91
2019-05-02T22:29:42.903Z,22.13
2019-05-02T22:32:09.269Z,22.29
2019-05-02T22:34:35.958Z,22.31
2019-05-02T22:37:02.885Z,22.22
2019-05-02T22:39:32.059Z,22.24
2019-05-02T22:41:58.837Z,22.08
2019-05-02T22:44:25.825Z,21.93
2019-05-02T22:46:55.212Z,21.92
2019-05-02T22:49:26.256Z,21.86
2019-05-02T22:51:55.779Z,21.74
2019-05-02T22:54:30.352Z,21.61
2019-05-02T22:56:55.743Z,21.56
2019-05-02T22:59:23.991Z,21.52
2019-05-02T23:01:53.299Z,21.35
2019-05-02T23:04:24.100Z,21.34
2019-05-02T23:06:52.739Z,21.38
2019-05-02T23:09:24.331Z,21.37
2019-05-02T23:11:54.658Z,21.32
2019-05-02T23:14:22.306Z,21.29
2019-05-02T23:16:53.125Z,21.16
2019-05-02T23:19:23.442Z,21.01
2019-05-02T23:21:54.149Z,20.91
2019-05-02T23:24:35.983Z,20.86
2019-05-02T23:26:55.448Z,20.65
2019-05-02T23:29:23.429Z,20.42
2019-05-02T23:31:51.779Z,20.27
2019-05-02T23:34:27.016Z,20.03
2019-05-02T23:36:54.786Z,20.02
2019-05-02T23:39:22.461Z,20.06
2019-05-02T23:41:52.466Z,20.31
2019-05-02T23:44:25.721Z,20.36
2019-05-02T23:46:54.964Z,20.38
2019-05-02T23:49:25.645Z,20.46
2019-05-02T23:52:05.970Z,20.58
2019-05-02T23:54:33.029Z,20.78
2019-05-02T23:56:59.661Z,20.62
2019-05-02T23:59:28.742Z,20.67
